Time;durP1;ratioP1;P1;durP2;ratioP2;P2;SDS_P1;SDS_P2;PMS_P1;PMS_P2;Temp;Humidity;BMP_temperature;BMP_pressure;BME280_temperature;BME280_humidity;BME280_pressure;Samples;Min_cycle;Max_cycle;Signal;HPM_P1;HPM_P2
2022/05/02 00:02:18;;;;;;;9.20;5.03;;;8.60;75.10;;;;;;5069550;28;20044;-68
2022/05/02 00:04:44;;;;;;;9.68;6.32;;;8.60;75.10;;;;;;5070372;28;20043;-68
2022/05/02 00:07:09;;;;;;;6.57;4.88;;;8.60;75.20;;;;;;5069095;28;20056;-68
2022/05/02 00:09:35;;;;;;;7.88;5.10;;;8.60;75.20;;;;;;5069354;28;20052;-69
2022/05/02 00:12:01;;;;;;;9.32;5.25;;;8.60;75.30;;;;;;5069772;28;20443;-68
2022/05/02 00:14:26;;;;;;;7.32;5.13;;;8.60;75.20;;;;;;5069971;28;20055;-68
2022/05/02 00:16:52;;;;;;;4.85;4.35;;;8.60;75.30;;;;;;5069634;28;20051;-68
2022/05/02 00:19:17;;;;;;;6.75;5.32;;;8.60;75.40;;;;;;5069752;28;20052;-68
2022/05/02 00:21:43;;;;;;;9.30;5.43;;;8.60;75.30;;;;;;5068507;28;20045;-68
2022/05/02 00:24:11;;;;;;;8.00;5.50;;;8.60;75.50;;;;;;5069127;28;20101;-68
2022/05/02 00:26:37;;;;;;;8.13;4.88;;;8.60;75.40;;;;;;5070396;28;20051;-69
2022/05/02 00:29:02;;;;;;;6.90;5.32;;;8.60;75.40;;;;;;5069522;28;20133;-68
2022/05/02 00:31:28;;;;;;;8.88;5.05;;;8.50;75.40;;;;;;5069414;28;20048;-68
2022/05/02 00:33:54;;;;;;;7.32;5.35;;;8.50;75.40;;;;;;5069522;28;20159;-68
2022/05/02 00:36:19;;;;;;;7.65;5.45;;;8.50;75.40;;;;;;5069028;28;20106;-68
2022/05/02 00:38:45;;;;;;;8.23;5.05;;;8.40;75.40;;;;;;5069477;28;20473;-68
2022/05/02 00:41:11;;;;;;;6.25;5.05;;;8.40;75.40;;;;;;5088110;28;20047;-69
2022/05/02 00:43:39;;;;;;;7.00;5.85;;;8.40;75.50;;;;;;5089156;28;20488;-69
2022/05/02 00:46:16;;;;;;;6.82;5.35;;;8.40;75.60;;;;;;5086910;28;20059;-68
2022/05/02 00:48:42;;;;;;;12.48;5.97;;;8.40;75.60;;;;;;5069291;28;20119;-69
2022/05/02 00:51:07;;;;;;;9.23;5.22;;;8.30;75.60;;;;;;5085575;28;20573;-68
2022/05/02 00:53:33;;;;;;;7.55;5.28;;;8.30;75.60;;;;;;5089414;28;20101;-68
2022/05/02 00:56:00;;;;;;;6.38;4.97;;;8.30;75.60;;;;;;5089117;28;20043;-69
2022/05/02 00:58:26;;;;;;;8.68;5.80;;;8.30;75.60;;;;;;5089381;28;20052;-68
2022/05/02 01:00:52;;;;;;;6.75;4.97;;;8.30;75.60;;;;;;5087617;28;20157;-68
2022/05/02 01:03:17;;;;;;;5.22;4.72;;;8.20;75.50;;;;;;5077740;28;20143;-68
2022/05/02 01:08:39;;;;;;;7.70;5.60;;;8.20;75.50;;;;;;5067742;28;20070;-68
2022/05/02 01:11:05;;;;;;;8.40;5.70;;;8.10;75.50;;;;;;5069041;28;20498;-68
2022/05/02 01:13:36;;;;;;;6.63;5.05;;;8.10;75.50;;;;;;5068746;28;20057;-68
2022/05/02 01:16:13;;;;;;;11.73;5.57;;;8.10;75.60;;;;;;5068923;28;20044;-68
2022/05/02 01:18:39;;;;;;;7.97;6.15;;;8.10;75.60;;;;;;5069918;28;20044;-68
2022/05/02 01:21:15;;;;;;;8.25;5.28;;;8.10;75.60;;;;;;5073007;28;20044;-68
2022/05/02 01:23:43;;;;;;;7.03;5.68;;;8.10;75.70;;;;;;5073595;28;20044;-68
2022/05/02 01:26:08;;;;;;;8.07;5.88;;;8.00;75.70;;;;;;5072759;28;20094;-68
2022/05/02 01:28:48;;;;;;;9.85;6.05;;;8.00;75.80;;;;;;5073120;28;20049;-68
2022/05/02 01:31:15;;;;;;;10.82;5.68;;;8.10;75.90;;;;;;5072924;28;20052;-69
2022/05/02 01:33:41;;;;;;;11.25;5.38;;;7.90;75.90;;;;;;5072769;28;20497;-68
2022/05/02 01:36:07;;;;;;;6.60;5.70;;;7.90;76.00;;;;;;5072436;28;20048;-69
2022/05/02 01:38:33;;;;;;;8.30;5.97;;;7.90;76.00;;;;;;5074543;28;20046;-69
2022/05/02 01:40:59;;;;;;;10.68;6.55;;;7.90;76.00;;;;;;5092503;28;20055;-68
2022/05/02 01:43:26;;;;;;;7.43;5.93;;;7.90;76.00;;;;;;5092810;28;20392;-68
2022/05/02 01:45:51;;;;;;;11.00;5.97;;;7.90;76.00;;;;;;5083359;28;20413;-69
2022/05/02 01:48:17;;;;;;;7.38;5.57;;;7.90;76.00;;;;;;5072545;28;20044;-68
2022/05/02 01:50:42;;;;;;;10.05;5.82;;;7.90;76.00;;;;;;5072410;28;20090;-68
2022/05/02 01:53:08;;;;;;;7.82;5.93;;;7.90;76.10;;;;;;5086920;28;20048;-68
2022/05/02 01:55:34;;;;;;;9.20;5.93;;;7.80;76.10;;;;;;5091128;28;20488;-68
2022/05/02 01:57:59;;;;;;;6.38;5.35;;;7.80;76.20;;;;;;5092833;28;20438;-68
2022/05/02 02:00:25;;;;;;;8.80;5.90;;;7.80;76.20;;;;;;5092989;28;20060;-68
2022/05/02 02:02:50;;;;;;;11.60;6.32;;;7.80;76.30;;;;;;5092699;28;20150;-68
2022/05/02 02:08:00;;;;;;;7.40;6.18;;;7.80;76.40;;;;;;5090009;28;20083;-68
2022/05/02 02:10:26;;;;;;;8.95;6.47;;;7.80;76.50;;;;;;5092482;28;20129;-68
2022/05/02 02:12:51;;;;;;;9.63;5.88;;;7.80;76.40;;;;;;5091427;28;20044;-68
2022/05/02 02:15:17;;;;;;;7.93;6.88;;;7.70;76.50;;;;;;5071757;28;20054;-68
2022/05/02 02:17:44;;;;;;;9.52;6.57;;;7.70;76.50;;;;;;5071634;28;20120;-68
2022/05/02 02:20:11;;;;;;;9.85;6.85;;;7.70;76.60;;;;;;5072049;28;20127;-67
2022/05/02 02:22:37;;;;;;;9.05;6.50;;;7.70;76.70;;;;;;5071528;28;20039;-68
2022/05/02 02:25:04;;;;;;;11.68;6.85;;;7.70;76.70;;;;;;5071778;28;20055;-68
2022/05/02 02:27:30;;;;;;;10.80;5.95;;;7.70;76.80;;;;;;5072395;28;20037;-68
2022/05/02 02:29:55;;;;;;;8.18;6.18;;;7.70;76.80;;;;;;5071046;28;20059;-68
2022/05/02 02:32:21;;;;;;;8.93;6.43;;;7.70;77.00;;;;;;5071515;28;20041;-68
2022/05/02 02:34:47;;;;;;;7.88;6.00;;;7.70;77.00;;;;;;5071724;28;20067;-68
2022/05/02 02:37:12;;;;;;;9.10;6.82;;;7.70;77.10;;;;;;5089414;28;20123;-67
2022/05/02 02:39:38;;;;;;;10.57;6.80;;;7.70;77.30;;;;;;5091646;28;20044;-69
2022/05/02 02:42:04;;;;;;;7.50;6.22;;;7.70;77.30;;;;;;5091515;28;20044;-68
2022/05/02 02:44:30;;;;;;;7.45;6.20;;;7.70;77.40;;;;;;5091628;28;20154;-68
2022/05/02 02:46:55;;;;;;;9.80;6.90;;;7.70;77.40;;;;;;5091476;28;20091;-68
2022/05/02 02:49:21;;;;;;;9.35;8.13;;;7.80;77.40;;;;;;5091091;28;20035;-68
2022/05/02 02:51:46;;;;;;;8.82;6.10;;;7.70;77.40;;;;;;5091415;28;20044;-67
2022/05/02 02:54:12;;;;;;;9.90;6.65;;;7.70;77.50;;;;;;5091265;28;20032;-68
2022/05/02 02:56:38;;;;;;;9.10;6.20;;;7.70;77.50;;;;;;5091140;28;20044;-68
2022/05/02 02:59:03;;;;;;;9.98;6.90;;;7.70;77.50;;;;;;5091389;28;20198;-68
2022/05/02 03:01:29;;;;;;;10.10;6.05;;;7.70;77.40;;;;;;5078124;28;20114;-68
2022/05/02 03:03:55;;;;;;;8.52;6.03;;;7.70;77.40;;;;;;5071068;28;20124;-68
2022/05/02 03:06:21;;;;;;;7.95;6.50;;;7.60;77.20;;;;;;5069901;28;20558;-68
2022/05/02 03:08:47;;;;;;;7.72;5.93;;;7.50;77.10;;;;;;5070631;28;20041;-69
2022/05/02 03:11:13;;;;;;;8.70;5.88;;;7.40;77.20;;;;;;5070675;28;20485;-68
2022/05/02 03:13:39;;;;;;;6.45;5.85;;;7.40;77.40;;;;;;5082013;28;20036;-69
2022/05/02 03:16:04;;;;;;;8.88;6.47;;;7.40;77.80;;;;;;5077211;28;20106;-68
2022/05/02 03:18:37;;;;;;;7.85;6.20;;;7.40;77.80;;;;;;5070792;28;20620;-68
2022/05/02 03:21:03;;;;;;;7.60;6.40;;;7.30;77.80;;;;;;5070827;28;20053;-68
2022/05/02 03:23:28;;;;;;;8.80;6.75;;;7.30;77.90;;;;;;5070617;28;20048;-68
2022/05/02 03:25:54;;;;;;;7.97;6.28;;;7.30;78.00;;;;;;5071881;28;20044;-69
2022/05/02 03:28:20;;;;;;;12.15;6.80;;;7.20;77.90;;;;;;5070596;28;20051;-69
2022/05/02 03:30:46;;;;;;;7.32;6.07;;;7.20;78.00;;;;;;5070594;28;20040;-68
2022/05/02 03:33:11;;;;;;;8.48;6.68;;;7.30;78.00;;;;;;5070838;28;20036;-68
2022/05/02 03:35:37;;;;;;;12.65;8.02;;;7.20;78.00;;;;;;5071501;28;20033;-68
2022/05/02 03:38:02;;;;;;;9.70;6.72;;;7.20;77.90;;;;;;5070666;28;20819;-67
2022/05/02 03:40:28;;;;;;;10.27;6.38;;;7.10;77.90;;;;;;5070214;28;20033;-67
2022/05/02 03:42:54;;;;;;;8.13;6.50;;;7.10;78.00;;;;;;5069549;28;20040;-68
2022/05/02 03:45:19;;;;;;;8.68;6.68;;;7.10;77.90;;;;;;5070287;28;20037;-67
2022/05/02 03:47:45;;;;;;;9.57;6.65;;;7.10;77.90;;;;;;5070193;28;20036;-68
2022/05/02 03:50:10;;;;;;;9.77;6.85;;;7.00;78.00;;;;;;5070445;28;20373;-67
2022/05/02 03:52:36;;;;;;;8.05;6.40;;;7.00;78.00;;;;;;5069971;28;20092;-68
2022/05/02 03:55:03;;;;;;;9.10;6.43;;;7.00;78.20;;;;;;5072668;28;20036;-67
2022/05/02 03:57:28;;;;;;;15.85;8.45;;;7.00;78.20;;;;;;5087976;28;20048;-68
2022/05/02 03:59:54;;;;;;;9.40;7.43;;;6.90;78.20;;;;;;5089766;28;20036;-69
2022/05/02 04:02:20;;;;;;;9.23;7.03;;;6.90;78.30;;;;;;5071250;28;20054;-68
2022/05/02 04:04:45;;;;;;;11.27;8.15;;;6.90;78.40;;;;;;5069857;28;20413;-68
2022/05/02 04:07:11;;;;;;;8.05;7.25;;;6.90;78.40;;;;;;5070245;28;20493;-69
2022/05/02 04:09:36;;;;;;;11.70;8.27;;;6.90;78.30;;;;;;5069818;28;20667;-68
2022/05/02 04:12:02;;;;;;;10.38;8.00;;;6.80;78.30;;;;;;5069368;28;20097;-69
2022/05/02 04:14:28;;;;;;;9.98;8.57;;;6.80;78.40;;;;;;5069479;28;20037;-69
2022/05/02 04:16:53;;;;;;;10.32;8.07;;;6.70;78.60;;;;;;5078253;28;20078;-68
2022/05/02 04:19:19;;;;;;;11.82;7.93;;;6.70;79.10;;;;;;5089288;28;20040;-68
2022/05/02 04:21:45;;;;;;;9.75;8.23;;;6.80;79.20;;;;;;5084013;28;20689;-68
2022/05/02 04:24:10;;;;;;;12.05;9.10;;;6.80;79.40;;;;;;5102207;28;20524;-68
2022/05/02 04:26:37;;;;;;;13.23;9.07;;;6.80;79.60;;;;;;5084460;28;20048;-68
2022/05/02 04:29:02;;;;;;;13.55;8.90;;;6.80;79.50;;;;;;5069371;28;20086;-68
2022/05/02 04:31:28;;;;;;;10.45;8.38;;;6.80;79.40;;;;;;5068124;28;20048;-68
2022/05/02 04:33:54;;;;;;;11.50;7.90;;;6.80;79.50;;;;;;5069094;28;20036;-68
2022/05/02 04:36:19;;;;;;;9.93;8.65;;;6.80;79.70;;;;;;5069411;28;20033;-68
2022/05/02 04:38:45;;;;;;;10.55;9.10;;;6.90;79.70;;;;;;5069412;28;20049;-69
2022/05/02 04:41:14;;;;;;;11.30;8.82;;;6.90;79.80;;;;;;5083413;28;20044;-69
2022/05/02 04:43:41;;;;;;;12.55;7.97;;;7.00;80.00;;;;;;5069705;28;20093;-68
2022/05/02 04:46:07;;;;;;;10.52;8.43;;;7.00;80.00;;;;;;5087536;28;20075;-68
2022/05/02 04:48:33;;;;;;;13.65;9.23;;;7.00;80.10;;;;;;5089278;28;20051;-68
2022/05/02 04:50:59;;;;;;;12.10;9.40;;;7.00;80.00;;;;;;5085500;28;20409;-68
2022/05/02 04:53:24;;;;;;;13.07;9.32;;;7.10;80.00;;;;;;5068923;28;20079;-68
2022/05/02 04:55:50;;;;;;;15.40;8.30;;;7.20;80.10;;;;;;5087050;28;20043;-68
2022/05/02 04:58:16;;;;;;;12.38;8.68;;;7.10;80.20;;;;;;5073400;28;20044;-67
2022/05/02 05:00:42;;;;;;;11.05;8.73;;;7.20;80.20;;;;;;5070007;28;20040;-67
2022/05/02 05:03:08;;;;;;;14.93;9.88;;;7.20;80.30;;;;;;5084513;28;20096;-68
2022/05/02 05:05:34;;;;;;;11.82;8.85;;;7.30;80.40;;;;;;5067550;28;20044;-67
2022/05/02 05:08:00;;;;;;;13.48;8.82;;;7.30;80.30;;;;;;5068813;28;20159;-67
2022/05/02 05:10:25;;;;;;;12.40;9.75;;;7.40;80.40;;;;;;5079000;28;20063;-67
2022/05/02 05:13:07;;;;;;;13.20;9.23;;;7.30;80.60;;;;;;5089260;28;20063;-68
2022/05/02 05:18:33;;;;;;;12.98;9.60;;;7.40;80.70;;;;;;5083758;28;20541;-67
2022/05/02 05:21:15;;;;;;;10.75;8.75;;;7.50;80.70;;;;;;5089112;28;20469;-68
2022/05/02 05:24:08;;;;;;;12.95;9.65;;;7.60;80.60;;;;;;5088595;28;20047;-68
2022/05/02 05:26:55;;;;;;;11.85;8.80;;;7.60;80.60;;;;;;5088663;28;20055;-67
2022/05/02 05:29:47;;;;;;;14.00;8.77;;;7.70;80.70;;;;;;5087264;28;20078;-68
2022/05/02 05:32:22;;;;;;;;;;;7.70;80.70;;;;;;5088180;28;20579;-67
2022/05/02 05:35:05;;;;;;;11.45;8.82;;;7.70;80.90;;;;;;5078267;28;20044;-67
2022/05/02 05:37:42;;;;;;;12.63;8.43;;;7.90;80.80;;;;;;5073814;28;20075;-68
2022/05/02 05:40:38;;;;;;;11.60;8.18;;;7.90;80.90;;;;;;5076116;28;20455;-67
2022/05/02 05:43:46;;;;;;;12.60;8.00;;;7.90;80.70;;;;;;5071802;28;20040;-67
2022/05/02 05:46:33;;;;;;;10.95;7.30;;;8.10;80.70;;;;;;5088757;28;20044;-67
2022/05/02 05:49:11;;;;;;;13.35;6.85;;;8.00;80.80;;;;;;5076332;28;20460;-68
2022/05/02 05:52:10;;;;;;;12.68;8.40;;;8.10;80.70;;;;;;5087032;28;20046;-68
2022/05/02 05:54:48;;;;;;;10.93;8.35;;;8.20;80.80;;;;;;5078536;28;20501;-68
2022/05/02 05:57:36;;;;;;;10.05;7.22;;;8.20;81.10;;;;;;5068554;28;20044;-67
2022/05/02 06:00:05;;;;;;;9.45;7.60;;;8.40;81.00;;;;;;5074362;28;20044;-68
2022/05/02 06:02:42;;;;;;;12.18;8.38;;;8.40;80.90;;;;;;5082573;28;20048;-68
2022/05/02 06:05:09;;;;;;;10.02;7.95;;;8.50;80.90;;;;;;5072622;28;20051;-67
2022/05/02 06:07:36;;;;;;;11.05;7.93;;;8.50;81.00;;;;;;5085718;28;20197;-67
2022/05/02 06:10:04;;;;;;;10.23;7.65;;;8.60;80.90;;;;;;5076656;28;20047;-67
2022/05/02 06:12:30;;;;;;;11.15;8.50;;;8.60;80.70;;;;;;5091169;28;20055;-68
2022/05/02 06:20:34;;;;;;;8.63;7.00;;;8.90;80.60;;;;;;5078440;28;20083;-68
2022/05/02 06:23:02;;;;;;;8.93;7.70;;;9.00;80.50;;;;;;5080034;28;20807;-68
2022/05/02 06:25:29;;;;;;;14.95;9.02;;;9.00;80.40;;;;;;5107463;28;20094;-68
2022/05/02 06:27:56;;;;;;;10.15;7.93;;;9.10;80.30;;;;;;5090818;28;20040;-67
2022/05/02 06:30:23;;;;;;;9.52;8.45;;;9.20;80.30;;;;;;5082538;28;20741;-66
2022/05/02 06:32:51;;;;;;;14.00;8.27;;;9.20;80.30;;;;;;5075226;28;20040;-66
2022/05/02 06:35:18;;;;;;;11.25;7.20;;;9.30;80.20;;;;;;5091470;28;20054;-67
2022/05/02 06:37:57;;;;;;;10.55;6.65;;;9.40;80.10;;;;;;5090870;28;20469;-68
2022/05/02 06:40:49;;;;;;;10.15;7.47;;;9.40;79.90;;;;;;5085650;28;20122;-69
2022/05/02 06:43:46;;;;;;;10.50;7.55;;;9.50;79.70;;;;;;5071897;28;20057;-70
2022/05/02 06:46:11;;;;;;;11.57;7.07;;;9.60;79.50;;;;;;5088092;28;20078;-67
2022/05/02 06:48:50;;;;;;;9.05;6.65;;;9.60;79.50;;;;;;5076717;28;20086;-67
2022/05/02 06:51:28;;;;;;;10.05;6.72;;;9.80;79.30;;;;;;5071930;28;20493;-67
2022/05/02 06:54:16;;;;;;;9.25;6.65;;;9.80;79.10;;;;;;5069950;28;20505;-67
2022/05/02 06:56:46;;;;;;;9.40;7.00;;;9.90;78.70;;;;;;5071292;28;20052;-67
2022/05/02 06:59:35;;;;;;;10.35;6.85;;;10.00;78.50;;;;;;5071170;28;20129;-68
2022/05/02 07:02:36;;;;;;;8.70;5.75;;;10.10;78.00;;;;;;5070875;28;20056;-68
2022/05/02 07:05:25;;;;;;;8.02;6.25;;;10.10;77.70;;;;;;5071231;28;20050;-66
2022/05/02 07:07:54;;;;;;;7.30;6.25;;;10.30;77.60;;;;;;5071263;28;20136;-68
2022/05/02 07:10:24;;;;;;;7.80;6.18;;;10.30;77.50;;;;;;5070668;28;20055;-67
2022/05/02 07:13:13;;;;;;;10.57;6.18;;;10.40;77.30;;;;;;5070929;28;20094;-66
2022/05/02 07:15:50;;;;;;;8.77;6.22;;;10.50;76.80;;;;;;5069503;28;20056;-66
2022/05/02 07:18:36;;;;;;;9.18;6.05;;;10.50;76.70;;;;;;5070847;28;20051;-67
2022/05/02 07:21:26;;;;;;;7.68;6.47;;;10.60;76.40;;;;;;5071021;28;20032;-66
2022/05/02 07:24:00;;;;;;;11.75;6.25;;;10.70;76.10;;;;;;5070244;28;20125;-67
2022/05/02 07:26:28;;;;;;;6.80;6.03;;;10.70;76.10;;;;;;5070806;28;20460;-67
2022/05/02 07:28:59;;;;;;;11.20;5.45;;;10.80;75.50;;;;;;5070614;28;20528;-67
2022/05/02 07:31:25;;;;;;;9.57;5.93;;;10.80;75.10;;;;;;5070536;28;20087;-66
2022/05/02 07:33:54;;;;;;;9.68;5.57;;;10.90;74.90;;;;;;5068832;28;20076;-67
2022/05/02 07:36:23;;;;;;;10.73;6.72;;;11.00;74.80;;;;;;5070776;28;20128;-68
2022/05/02 07:38:59;;;;;;;15.85;7.75;;;11.00;74.60;;;;;;5070667;28;20097;-67
2022/05/02 07:41:26;;;;;;;11.00;6.32;;;11.10;74.40;;;;;;5068791;28;20577;-67
2022/05/02 07:44:05;;;;;;;10.77;6.20;;;11.20;74.10;;;;;;5070400;28;20044;-68
2022/05/02 07:46:42;;;;;;;9.40;5.93;;;11.30;73.70;;;;;;5072787;28;20050;-66
2022/05/02 07:49:09;;;;;;;10.45;5.95;;;11.30;73.50;;;;;;5080018;28;20043;-66
2022/05/02 07:51:42;;;;;;;9.90;6.10;;;11.40;73.40;;;;;;5088771;28;20556;-66
2022/05/02 07:54:14;;;;;;;9.85;5.38;;;11.50;73.00;;;;;;5076593;28;20052;-65
2022/05/02 07:56:41;;;;;;;9.52;5.65;;;11.60;72.70;;;;;;5085767;28;20055;-66
2022/05/02 07:59:08;;;;;;;11.18;6.10;;;11.60;72.20;;;;;;5089670;28;20043;-66
2022/05/02 08:01:34;;;;;;;10.23;6.32;;;11.60;71.70;;;;;;5085200;28;20032;-66
2022/05/02 08:04:00;;;;;;;10.15;5.65;;;11.60;71.30;;;;;;5077134;28;20048;-66
2022/05/02 08:06:47;;;;;;;9.15;5.25;;;11.60;71.00;;;;;;5083326;28;20042;-65
2022/05/02 08:09:24;;;;;;;8.73;5.85;;;11.70;70.40;;;;;;5069264;28;20040;-65
2022/05/02 08:11:51;;;;;;;12.95;6.70;;;11.70;70.50;;;;;;5086650;28;20050;-65
2022/05/02 08:14:24;;;;;;;7.70;5.72;;;11.70;70.40;;;;;;5089236;28;20093;-65
2022/05/02 08:17:02;;;;;;;10.32;6.75;;;11.80;70.00;;;;;;5074573;28;20143;-65
2022/05/02 08:19:49;;;;;;;10.70;6.32;;;11.80;69.60;;;;;;5079987;28;20055;-66
2022/05/02 08:28:36;;;;;;;9.55;5.63;;;11.90;69.80;;;;;;5087730;28;20060;-66
2022/05/02 08:31:12;;;;;;;6.82;5.45;;;12.00;69.40;;;;;;5088987;28;20048;-65
2022/05/02 08:33:46;;;;;;;10.05;6.00;;;12.00;69.60;;;;;;5075427;28;20131;-65
2022/05/02 08:36:31;;;;;;;9.23;5.70;;;12.10;69.40;;;;;;5085427;28;20576;-65
2022/05/02 08:39:04;;;;;;;7.03;5.32;;;12.20;68.80;;;;;;5081937;28;20505;-64
2022/05/02 08:41:30;;;;;;;7.70;5.32;;;12.10;68.40;;;;;;5068454;28;20528;-64
2022/05/02 08:44:27;;;;;;;8.82;5.85;;;12.20;67.80;;;;;;5068648;28;20048;-66
2022/05/02 08:47:21;;;;;;;8.32;5.30;;;12.20;67.30;;;;;;5067627;28;20164;-65
2022/05/02 08:50:06;;;;;;;6.75;5.65;;;12.20;66.40;;;;;;5086866;28;20051;-64
2022/05/02 08:53:02;;;;;;;10.70;6.38;;;12.20;66.90;;;;;;5068753;28;20055;-65
2022/05/02 08:55:33;;;;;;;9.50;6.40;;;12.30;66.80;;;;;;5068309;28;20410;-65
2022/05/02 08:58:24;;;;;;;12.45;5.47;;;12.40;66.60;;;;;;5087088;28;20054;-65
2022/05/02 09:01:27;;;;;;;10.80;5.20;;;12.50;66.00;;;;;;5089122;28;20060;-65
2022/05/02 09:03:55;;;;;;;12.20;7.00;;;12.50;65.70;;;;;;5088787;28;20086;-65
2022/05/02 09:06:24;;;;;;;9.13;5.97;;;12.50;66.30;;;;;;5088504;28;20404;-65
2022/05/02 09:09:26;;;;;;;8.00;5.68;;;12.60;66.50;;;;;;5088938;28;20055;-65
2022/05/02 09:12:24;;;;;;;8.65;5.43;;;12.70;66.30;;;;;;5089016;28;20060;-65
2022/05/02 09:15:10;;;;;;;9.00;5.50;;;12.80;66.20;;;;;;5088280;28;20055;-66
2022/05/02 09:18:13;;;;;;;7.32;5.65;;;12.80;65.90;;;;;;5088998;28;20048;-65
2022/05/02 09:20:53;;;;;;;11.27;5.25;;;13.00;65.70;;;;;;5088876;28;20101;-64
2022/05/02 09:23:31;;;;;;;7.90;5.63;;;13.00;65.50;;;;;;5088835;28;20036;-65
2022/05/02 09:26:06;;;;;;;8.60;5.32;;;13.00;64.80;;;;;;5088005;28;20055;-65
2022/05/02 09:29:02;;;;;;;10.43;6.68;;;13.10;64.70;;;;;;5086844;28;20052;-64
2022/05/02 09:31:59;;;;;;;8.50;4.88;;;13.10;65.00;;;;;;5083903;28;20055;-66
2022/05/02 09:34:36;;;;;;;10.00;6.88;;;13.20;64.30;;;;;;5088568;28;20059;-65
2022/05/02 09:37:06;;;;;;;7.93;5.85;;;13.30;64.30;;;;;;5088201;28;20153;-65
2022/05/02 09:40:02;;;;;;;7.65;5.75;;;13.20;64.30;;;;;;5089085;28;20062;-64
2022/05/02 09:42:56;;;;;;;8.00;5.45;;;13.40;63.60;;;;;;5091237;28;20150;-65
2022/05/02 09:51:44;;;;;;;11.07;5.47;;;13.50;62.30;;;;;;5090716;28;20044;-65
2022/05/02 09:57:25;;;;;;;7.68;5.38;;;13.40;62.40;;;;;;5091038;28;20774;-65
2022/05/02 10:02:46;;;;;;;8.93;5.15;;;13.60;62.70;;;;;;5092324;28;20056;-65
2022/05/02 10:05:22;;;;;;;7.95;6.07;;;13.60;61.80;;;;;;5079712;28;20046;-64
2022/05/02 10:08:36;;;;;;;8.88;5.30;;;13.70;61.40;;;;;;5070191;28;20167;-65
2022/05/02 10:11:40;;;;;;;10.48;7.43;;;13.90;61.30;;;;;;5071447;28;20044;-66
2022/05/02 10:14:26;;;;;;;6.78;5.43;;;13.90;60.70;;;;;;5029484;28;20081;-65
2022/05/02 10:17:13;;;;;;;8.18;4.65;;;13.90;60.80;;;;;;5069273;28;20121;-65
2022/05/02 10:20:07;;;;;;;8.05;4.88;;;14.00;59.50;;;;;;5071829;28;20040;-65
2022/05/02 10:22:51;;;;;;;5.72;4.50;;;14.00;58.80;;;;;;5071339;28;20047;-65
2022/05/02 10:25:50;;;;;;;7.75;4.07;;;13.90;59.10;;;;;;5089034;28;20401;-65
2022/05/02 10:28:53;;;;;;;10.82;4.78;;;14.10;57.60;;;;;;5091504;28;20063;-65
2022/05/02 10:31:25;;;;;;;6.60;4.75;;;14.10;56.90;;;;;;5086935;28;20051;-66
2022/05/02 10:33:53;;;;;;;7.25;4.15;;;14.20;58.10;;;;;;5090131;28;20035;-65
2022/05/02 10:36:22;;;;;;;6.28;3.58;;;14.40;58.20;;;;;;5091709;28;20040;-65
2022/05/02 10:38:54;;;;;;;6.63;3.90;;;14.50;57.70;;;;;;5091365;28;20480;-64
2022/05/02 10:41:44;;;;;;;7.47;3.42;;;14.60;57.20;;;;;;5091624;28;20523;-65
2022/05/02 10:44:17;;;;;;;5.97;3.47;;;14.70;55.50;;;;;;5090779;28;20070;-64
2022/05/02 10:46:45;;;;;;;4.45;3.50;;;14.70;55.20;;;;;;5091522;28;20040;-65
2022/05/02 10:49:21;;;;;;;6.00;3.15;;;14.70;53.90;;;;;;5090878;28;20036;-65
2022/05/02 10:52:00;;;;;;;7.25;3.40;;;14.80;53.50;;;;;;5090491;28;20040;-65
2022/05/02 10:54:40;;;;;;;8.48;3.40;;;14.90;54.00;;;;;;5091319;28;20036;-66
2022/05/02 10:57:40;;;;;;;6.53;3.42;;;15.00;53.50;;;;;;5091263;28;20075;-65
2022/05/02 11:00:12;;;;;;;6.97;4.15;;;15.10;53.80;;;;;;5070982;28;20766;-66
2022/05/02 11:03:08;;;;;;;7.38;4.57;;;15.10;53.80;;;;;;5070491;28;20045;-65
2022/05/02 11:05:53;;;;;;;8.10;4.07;;;15.20;52.50;;;;;;5085875;28;20485;-65
2022/05/02 11:08:26;;;;;;;9.63;5.18;;;15.20;52.60;;;;;;5090566;28;20048;-65
2022/05/02 11:11:06;;;;;;;6.63;4.32;;;15.10;52.80;;;;;;5090386;28;20508;-66
2022/05/02 11:13:44;;;;;;;5.63;4.00;;;15.10;52.60;;;;;;5091014;28;20055;-65
2022/05/02 11:16:22;;;;;;;6.07;4.05;;;15.20;52.60;;;;;;5090492;28;20048;-67
2022/05/02 11:22:17;;;;;;;6.83;3.50;;;15.30;52.20;;;;;;5090364;28;20044;-67
2022/05/02 11:25:07;;;;;;;5.97;3.88;;;15.50;53.30;;;;;;5090819;28;20056;-67
2022/05/02 11:28:01;;;;;;;8.45;4.05;;;15.60;53.20;;;;;;5088950;28;20119;-66
2022/05/02 11:30:28;;;;;;;6.35;4.55;;;15.60;52.00;;;;;;5090522;28;20047;-66
2022/05/02 11:33:02;;;;;;;6.45;3.97;;;15.70;53.10;;;;;;5090398;28;20504;-66
2022/05/02 11:35:31;;;;;;;7.63;3.88;;;15.90;52.50;;;;;;5090175;28;20055;-66
2022/05/02 11:38:25;;;;;;;6.35;3.95;;;16.00;52.40;;;;;;5090730;28;20059;-66
2022/05/02 11:40:58;;;;;;;5.57;4.05;;;16.00;52.70;;;;;;5069979;28;20051;-67
2022/05/02 11:43:24;;;;;;;9.35;4.35;;;16.00;51.60;;;;;;5090324;28;20390;-66
2022/05/02 11:46:36;;;;;;;7.18;3.55;;;16.00;50.90;;;;;;5090290;28;20450;-66
2022/05/02 11:49:38;;;;;;;7.85;3.85;;;15.90;49.20;;;;;;5066338;28;20462;-66
2022/05/02 11:52:13;;;;;;;4.95;3.58;;;15.80;49.50;;;;;;5090061;28;20174;-66
2022/05/02 11:54:40;;;;;;;6.38;3.72;;;15.80;49.50;;;;;;5090083;28;20048;-66
2022/05/02 11:57:20;;;;;;;7.95;3.55;;;15.80;49.40;;;;;;5089700;28;20113;-67
2022/05/02 12:00:07;;;;;;;5.00;3.58;;;15.90;49.00;;;;;;5089794;28;20079;-66
2022/05/02 12:02:53;;;;;;;4.63;3.67;;;16.00;48.00;;;;;;5089090;28;20079;-67
2022/05/02 12:05:32;;;;;;;5.43;2.90;;;16.10;48.50;;;;;;5076694;28;20131;-66
2022/05/02 12:08:03;;;;;;;4.40;3.17;;;16.10;48.00;;;;;;5085680;28;20052;-67
2022/05/02 12:10:41;;;;;;;5.78;2.67;;;16.20;48.10;;;;;;5069226;28;20052;-67
2022/05/02 12:13:11;;;;;;;6.80;3.33;;;16.30;47.60;;;;;;5069391;28;20055;-67
2022/05/02 12:16:14;;;;;;;4.80;3.33;;;16.30;47.60;;;;;;5069529;28;20127;-66
2022/05/02 12:18:51;;;;;;;5.00;3.55;;;16.50;46.80;;;;;;4991381;28;20184;-67
2022/05/02 12:21:19;;;;;;;4.57;3.20;;;16.50;47.60;;;;;;5061548;28;20135;-67
2022/05/02 12:23:46;;;;;;;4.97;3.80;;;16.40;47.30;;;;;;5069493;28;20055;-67
2022/05/02 12:26:18;;;;;;;5.95;3.80;;;16.50;47.90;;;;;;5069168;28;20923;-67
2022/05/02 12:28:47;;;;;;;6.10;3.53;;;16.60;48.40;;;;;;5069491;28;20101;-67
2022/05/02 12:31:17;;;;;;;4.03;2.85;;;16.70;48.50;;;;;;5069189;28;20037;-67
2022/05/02 12:33:48;;;;;;;4.53;3.30;;;16.80;48.10;;;;;;5069422;28;20045;-67
2022/05/02 12:36:16;;;;;;;4.35;3.20;;;17.00;47.90;;;;;;5068720;28;20040;-66
2022/05/02 12:38:49;;;;;;;5.80;3.38;;;17.10;48.10;;;;;;5069452;28;20047;-66
2022/05/02 12:41:27;;;;;;;5.82;3.20;;;17.30;48.20;;;;;;5068900;28;20115;-67
2022/05/02 12:43:58;;;;;;;5.43;3.22;;;17.50;47.10;;;;;;5068406;28;20432;-67
2022/05/02 12:46:38;;;;;;;4.55;3.00;;;17.50;45.60;;;;;;5069170;28;20048;-65
2022/05/02 12:49:05;;;;;;;5.70;3.15;;;17.30;45.10;;;;;;5068941;28;20036;-67
2022/05/02 12:51:32;;;;;;;5.10;3.10;;;17.20;46.00;;;;;;5067289;28;20049;-66
2022/05/02 12:54:14;;;;;;;4.50;3.33;;;17.20;46.20;;;;;;5069067;28;20040;-66
2022/05/02 13:02:40;;;;;;;5.85;3.40;;;17.10;46.90;;;;;;5068155;28;20049;-68
2022/05/02 13:05:19;;;;;;;5.72;3.28;;;17.20;45.90;;;;;;5079222;28;20054;-68
2022/05/02 13:07:50;;;;;;;7.65;3.20;;;17.00;46.30;;;;;;5088874;28;20053;-67
2022/05/02 13:10:27;;;;;;;9.13;3.85;;;17.00;46.80;;;;;;5088779;28;20193;-68
2022/05/02 13:12:59;;;;;;;6.95;3.53;;;17.00;46.50;;;;;;5088646;28;20520;-67
2022/05/02 13:15:27;;;;;;;8.68;3.60;;;17.10;47.50;;;;;;5094116;28;20081;-68
2022/05/02 13:18:02;;;;;;;6.65;3.40;;;17.10;47.70;;;;;;5095404;28;20579;-68
2022/05/02 13:20:29;;;;;;;8.95;3.30;;;17.00;47.90;;;;;;5095565;28;20048;-68
2022/05/02 13:23:03;;;;;;;7.50;3.65;;;16.90;47.90;;;;;;5094123;28;20499;-68
2022/05/02 13:25:47;;;;;;;4.93;3.50;;;17.00;47.70;;;;;;5094909;28;20048;-67
2022/05/02 13:28:23;;;;;;;5.82;3.58;;;17.20;48.10;;;;;;5095486;28;20051;-68
2022/05/02 13:30:54;;;;;;;5.85;3.50;;;17.30;48.00;;;;;;5095099;28;20046;-69
2022/05/02 13:33:32;;;;;;;4.43;3.80;;;17.60;48.20;;;;;;5095367;28;20040;-68
2022/05/02 13:36:07;;;;;;;4.40;3.70;;;17.60;47.80;;;;;;5094288;28;20519;-68
2022/05/02 13:39:02;;;;;;;5.00;3.65;;;17.50;47.40;;;;;;5095437;28;20036;-68
2022/05/02 13:41:48;;;;;;;7.68;3.33;;;17.30;47.50;;;;;;5094332;28;20060;-67
2022/05/02 13:44:29;;;;;;;4.82;3.30;;;17.10;47.30;;;;;;5095058;28;20496;-68
2022/05/02 13:47:09;;;;;;;6.10;4.22;;;17.10;47.80;;;;;;5095013;28;20047;-68
2022/05/02 13:49:46;;;;;;;10.02;4.20;;;17.40;47.40;;;;;;5095271;28;20083;-67
2022/05/02 13:52:50;;;;;;;7.75;3.85;;;17.60;47.70;;;;;;5095394;28;20075;-68
2022/05/02 13:55:29;;;;;;;4.90;3.47;;;17.60;47.70;;;;;;5095178;28;20056;-68
2022/05/02 13:58:06;;;;;;;5.20;3.33;;;17.50;47.70;;;;;;5094875;28;20089;-68
2022/05/02 14:03:25;;;;;;;9.38;4.28;;;16.90;48.90;;;;;;5095051;28;20087;-68
2022/05/02 14:08:34;;;;;;;6.38;3.58;;;17.10;48.80;;;;;;5088703;28;20056;-67
2022/05/02 14:11:00;;;;;;;4.68;3.03;;;17.40;48.30;;;;;;5092396;28;20048;-68
2022/05/02 14:13:27;;;;;;;5.38;2.55;;;17.60;47.90;;;;;;5087321;28;20048;-68